createdAt,value
2023-01-29T00:03:45.047Z,-0.53
2023-01-29T00:08:48.011Z,-1.23
2023-01-29T00:13:51.033Z,-1.13
2023-01-29T00:18:52.744Z,-1.57
2023-01-29T00:23:55.732Z,-1.35
2023-01-29T00:28:57.302Z,-1.47
2023-01-29T00:33:58.968Z,-1.53
2023-01-29T00:39:02.046Z,-1.30
2023-01-29T00:44:03.621Z,-1.34
2023-01-29T00:49:06.471Z,-1.26
2023-01-29T00:54:09.470Z,-0.64
2023-01-29T00:59:11.044Z,-1.21
2023-01-29T01:04:12.991Z,-0.82
2023-01-29T01:09:15.958Z,-1.47
2023-01-29T01:14:17.665Z,-1.65
2023-01-29T01:19:19.173Z,-1.60
2023-01-29T01:24:22.089Z,-1.60
2023-01-29T01:29:23.666Z,-1.41
2023-01-29T01:34:25.253Z,-1.83
2023-01-29T01:39:33.456Z,-1.75
2023-01-29T01:45:05.766Z,-1.66
2023-01-29T01:50:11.470Z,-1.62
2023-01-29T01:55:17.850Z,-1.62
2023-01-29T02:00:21.933Z,-1.67
2023-01-29T02:05:25.146Z,-1.39
2023-01-29T02:10:35.310Z,-1.37
2023-01-29T02:15:36.855Z,-1.30
2023-01-29T02:20:42.146Z,-1.65
2023-01-29T02:26:04.229Z,-1.31
2023-01-29T02:31:16.653Z,-1.14
2023-01-29T02:36:27.742Z,-0.88
2023-01-29T02:41:35.472Z,-1.01
2023-01-29T02:46:43.237Z,-1.00
2023-01-29T02:51:51.296Z,-1.13
2023-01-29T02:56:56.277Z,-1.20
2023-01-29T03:02:05.213Z,-0.83
2023-01-29T03:07:10.280Z,-0.80
2023-01-29T03:12:20.174Z,-1.29
2023-01-29T03:17:30.301Z,-1.36
2023-01-29T03:22:32.954Z,-1.53
2023-01-29T03:27:41.442Z,-1.55
2023-01-29T03:32:46.628Z,-1.43
2023-01-29T03:37:49.279Z,-1.43
2023-01-29T03:42:59.485Z,-0.37
2023-01-29T03:48:08.450Z,-0.75
2023-01-29T03:53:20.275Z,-0.74
2023-01-29T03:58:27.072Z,-0.60
2023-01-29T04:03:34.970Z,-0.12
2023-01-29T04:08:45.343Z,0.59
2023-01-29T04:13:47.664Z,1.08
2023-01-29T04:18:50.833Z,0.75
2023-01-29T04:23:52.495Z,0.81
2023-01-29T04:29:16.100Z,0.44
2023-01-29T04:34:25.913Z,0.33
2023-01-29T04:39:35.151Z,0.28
2023-01-29T04:44:42.203Z,0.69
2023-01-29T05:00:49.976Z,-0.63
2023-01-29T05:05:55.694Z,-0.60
2023-01-29T05:10:59.417Z,-0.64
2023-01-29T05:16:05.341Z,-0.34
2023-01-29T05:21:09.395Z,-0.05
2023-01-29T05:26:11.927Z,0.16
2023-01-29T05:31:13.570Z,0.57
2023-01-29T05:36:16.481Z,0.20
2023-01-29T05:41:17.943Z,0.40
2023-01-29T05:46:19.529Z,0.06
2023-01-29T05:51:22.719Z,0.21
2023-01-29T05:56:24.221Z,0.41
2023-01-29T06:01:26.362Z,0.30
2023-01-29T06:06:29.248Z,-0.38
2023-01-29T06:11:30.736Z,-0.35
2023-01-29T06:16:32.302Z,0.08
2023-01-29T06:21:35.164Z,0.63
2023-01-29T06:26:36.807Z,0.34
2023-01-29T06:31:39.499Z,-0.18
2023-01-29T06:36:42.828Z,-0.37
2023-01-29T06:41:44.299Z,0.56
2023-01-29T06:46:45.769Z,0.20
2023-01-29T06:51:48.657Z,-0.03
2023-01-29T06:56:50.285Z,0.14
2023-01-29T07:01:51.838Z,0.77
2023-01-29T07:06:54.772Z,0.91
2023-01-29T07:11:56.374Z,0.52
2023-01-29T07:16:57.911Z,0.69
2023-01-29T07:22:00.784Z,0.65
2023-01-29T07:27:02.395Z,0.73
2023-01-29T07:32:04.461Z,0.71
2023-01-29T07:37:07.703Z,0.46
2023-01-29T07:42:09.239Z,0.16
2023-01-29T07:47:12.098Z,0.71
2023-01-29T07:52:15.051Z,1.10
2023-01-29T07:57:16.587Z,0.82
2023-01-29T08:02:18.165Z,1.08
2023-01-29T08:07:21.220Z,0.77
2023-01-29T08:12:22.841Z,0.98
2023-01-29T08:17:24.414Z,0.48
2023-01-29T08:22:27.343Z,1.13
2023-01-29T08:27:28.864Z,1.53
2023-01-29T08:32:31.835Z,1.22
2023-01-29T08:37:34.944Z,0.49
2023-01-29T08:42:36.516Z,0.06
2023-01-29T08:47:37.996Z,0.36
2023-01-29T08:52:40.937Z,-1.15
2023-01-29T08:57:43.636Z,0.15
2023-01-29T09:02:45.247Z,0.78
2023-01-29T09:07:48.227Z,0.87
2023-01-29T09:12:49.774Z,0.75
2023-01-29T09:17:51.325Z,0.35
2023-01-29T09:22:54.203Z,-0.20
2023-01-29T09:27:55.803Z,0.08
2023-01-29T09:32:57.329Z,0.35
2023-01-29T09:38:00.363Z,0.58
2023-01-29T09:43:06.890Z,-0.05
2023-01-29T09:48:12.791Z,-0.26
2023-01-29T09:53:19.967Z,0.49
2023-01-29T09:58:28.860Z,-1.13
2023-01-29T10:03:44.949Z,-1.82
2023-01-29T10:09:07.639Z,-0.59
2023-01-29T10:14:18.114Z,-0.09
2023-01-29T10:19:40.982Z,0.19
2023-01-29T10:24:52.606Z,0.81
2023-01-29T10:29:56.347Z,0.39
2023-01-29T10:35:02.495Z,1.20
2023-01-29T10:40:18.624Z,1.83
2023-01-29T10:45:30.193Z,1.78
2023-01-29T10:50:46.358Z,1.62
2023-01-29T10:56:05.801Z,1.76
2023-01-29T11:01:12.867Z,1.65
2023-01-29T11:06:19.064Z,1.17
2023-01-29T11:11:24.525Z,1.33
2023-01-29T11:16:27.248Z,0.47
2023-01-29T11:21:29.649Z,0.69
2023-01-29T11:26:35.492Z,0.85
2023-01-29T11:31:38.556Z,0.71
2023-01-29T11:36:40.557Z,1.23
2023-01-29T11:41:49.028Z,0.85
2023-01-29T11:46:50.609Z,1.68
2023-01-29T11:51:54.257Z,1.47
2023-01-29T11:56:58.132Z,2.33
2023-01-29T12:02:10.744Z,2.40
2023-01-29T12:07:16.383Z,1.59
2023-01-29T12:12:28.163Z,2.33
2023-01-29T12:17:34.196Z,2.62
2023-01-29T12:22:42.799Z,2.43
2023-01-29T12:27:49.411Z,2.58
2023-01-29T12:32:56.589Z,1.81
2023-01-29T12:38:03.020Z,2.22
2023-01-29T12:43:15.203Z,2.04
2023-01-29T12:48:24.920Z,1.84
2023-01-29T12:53:32.417Z,2.36
2023-01-29T12:58:36.134Z,1.92
2023-01-29T13:03:49.657Z,1.98
2023-01-29T13:08:55.178Z,1.35
2023-01-29T13:14:00.708Z,1.45
2023-01-29T13:19:05.818Z,1.61
2023-01-29T13:24:15.284Z,2.13
2023-01-29T13:29:24.528Z,2.24
2023-01-29T13:34:29.682Z,1.86
2023-01-29T13:39:34.040Z,1.59
2023-01-29T13:44:40.569Z,1.63
2023-01-29T13:49:46.247Z,1.96
2023-01-29T13:54:55.541Z,2.10
2023-01-29T13:59:58.537Z,1.70
2023-01-29T14:05:40.811Z,1.71
2023-01-29T14:10:43.614Z,1.45
2023-01-29T14:16:24.993Z,1.22
2023-01-29T14:21:30.613Z,1.93
2023-01-29T14:26:34.649Z,2.18
2023-01-29T14:31:42.350Z,1.97
2023-01-29T14:36:46.768Z,1.44
2023-01-29T14:41:50.699Z,1.63
2023-01-29T14:46:53.495Z,1.78
2023-01-29T14:51:56.931Z,1.66
2023-01-29T14:57:01.692Z,1.61
2023-01-29T15:02:16.097Z,1.65
2023-01-29T15:07:29.794Z,1.49
2023-01-29T15:12:39.079Z,1.61
2023-01-29T15:17:52.174Z,1.85
2023-01-29T15:22:54.788Z,1.86
2023-01-29T15:27:58.290Z,1.97
2023-01-29T15:33:02.646Z,1.90
2023-01-29T15:38:06.517Z,2.04
2023-01-29T15:43:20.821Z,1.99
2023-01-29T15:48:32.760Z,1.43
2023-01-29T15:53:37.917Z,0.97
2023-01-29T15:58:40.236Z,0.93
2023-01-29T16:03:44.125Z,1.19
2023-01-29T16:08:50.561Z,1.69
2023-01-29T16:13:53.865Z,1.53
2023-01-29T16:19:02.573Z,1.88
2023-01-29T16:24:07.994Z,1.77
2023-01-29T16:29:13.904Z,1.55
2023-01-29T16:34:25.389Z,1.66
2023-01-29T16:39:31.780Z,1.98
2023-01-29T16:44:36.512Z,1.53
2023-01-29T16:49:49.898Z,1.76
2023-01-29T16:54:51.963Z,1.20
2023-01-29T16:59:56.439Z,1.11
2023-01-29T17:05:03.096Z,1.40
2023-01-29T17:10:06.591Z,1.30
2023-01-29T17:15:30.136Z,1.31
2023-01-29T17:20:33.171Z,0.77
2023-01-29T17:25:34.735Z,0.73
2023-01-29T17:30:39.118Z,0.92
2023-01-29T17:35:44.115Z,1.05
2023-01-29T17:40:49.792Z,1.23
2023-01-29T17:45:51.527Z,1.01
2023-01-29T17:50:56.694Z,1.28
2023-01-29T17:55:58.367Z,1.48
2023-01-29T18:01:00.128Z,0.89
2023-01-29T18:06:03.303Z,1.00
2023-01-29T18:11:05.152Z,1.17
2023-01-29T18:16:07.158Z,1.23
2023-01-29T18:21:10.015Z,0.99
2023-01-29T18:26:12.570Z,0.96
2023-01-29T18:31:14.601Z,0.79
2023-01-29T18:36:17.802Z,0.77
2023-01-29T18:41:19.412Z,0.55
2023-01-29T18:46:20.951Z,0.42
2023-01-29T18:51:24.027Z,0.42
2023-01-29T18:56:25.688Z,0.30
2023-01-29T19:01:27.361Z,0.54
2023-01-29T19:06:32.870Z,0.27
2023-01-29T19:11:34.395Z,-0.04
2023-01-29T19:16:35.936Z,0.01
2023-01-29T19:21:38.807Z,-0.18
2023-01-29T19:26:40.350Z,0.04
2023-01-29T19:31:42.157Z,0.13
2023-01-29T19:36:45.086Z,-0.28
2023-01-29T19:41:46.684Z,-0.24
2023-01-29T19:46:48.380Z,-0.66
2023-01-29T19:51:51.273Z,-0.42
2023-01-29T19:56:52.836Z,-0.33
2023-01-29T20:01:54.468Z,-0.59
2023-01-29T20:06:57.592Z,-0.50
2023-01-29T20:11:59.426Z,-0.60
2023-01-29T20:17:01.053Z,-0.52
2023-01-29T20:22:03.966Z,-0.15
2023-01-29T20:27:06.447Z,-0.22
2023-01-29T20:32:08.041Z,-0.67
2023-01-29T20:37:11.275Z,-0.43
2023-01-29T20:42:13.474Z,-0.37
2023-01-29T20:47:14.998Z,-0.26
2023-01-29T20:52:17.951Z,-0.78
2023-01-29T20:57:19.571Z,-0.62
2023-01-29T21:02:21.159Z,-0.69
2023-01-29T21:07:24.171Z,-0.55
2023-01-29T21:12:25.790Z,-0.29
2023-01-29T21:17:28.200Z,-0.77
2023-01-29T21:22:31.447Z,-0.68
2023-01-29T21:27:33.038Z,-0.74
2023-01-29T21:32:34.594Z,-0.65
2023-01-29T21:37:37.546Z,-0.68
2023-01-29T21:42:39.159Z,-1.06
2023-01-29T21:47:40.647Z,-1.16
2023-01-29T21:52:43.614Z,-0.99
2023-01-29T21:57:45.241Z,-1.20
2023-01-29T22:02:47.058Z,-1.38
2023-01-29T22:07:50.844Z,-1.08
2023-01-29T22:12:52.714Z,-1.09
2023-01-29T22:17:54.220Z,-0.91
2023-01-29T22:22:58.523Z,-1.14
2023-01-29T22:28:00.125Z,-1.02
2023-01-29T22:33:01.816Z,-0.98
2023-01-29T22:38:04.764Z,-1.31
2023-01-29T22:43:06.337Z,-1.07
2023-01-29T22:48:08.283Z,-1.21
2023-01-29T22:53:11.212Z,-1.39
2023-01-29T22:58:12.735Z,-1.59
2023-01-29T23:03:14.307Z,-1.51
2023-01-29T23:08:17.301Z,-1.62
2023-01-29T23:13:19.023Z,-1.54
2023-01-29T23:18:20.507Z,-1.43
2023-01-29T23:23:23.403Z,-1.44
2023-01-29T23:28:24.893Z,-1.78
2023-01-29T23:33:26.528Z,-1.68
2023-01-29T23:38:29.473Z,-1.75
2023-01-29T23:43:31.207Z,-1.53
2023-01-29T23:48:32.737Z,-1.09
2023-01-29T23:53:35.619Z,-1.02
2023-01-29T23:58:37.107Z,-1.27
